De Witt, Missouri
Current Conditions -  °F | °C
As of 8:15 PM on Thursday 27 Nov 2014 (Local Time) from KMHL Reporting Station
Clear Clear  
Wind Chill: 26°   Ceiling: Unl
Heat Index: 32°   Visibility: 10mi
Dew Point: 27°   Wind: 7mph
Humidity: 80%   Direction: 90°E
Pressure: 30.4"   Gusts: NA
Location:  39.38°N, 93.22°W
Report Text: KMHL 280215Z AUTO 09006KT 10SM CLR 00/M03 A3040 RMK AO2
Loading
Personal Weather Stations






























Interactive Weather Map New forecast layout! Learn more

10-Day Weather Forecast

Advertisements
Track Severe Weather on mobile